Time;durP1;ratioP1;P1;durP2;ratioP2;P2;SDS_P1;SDS_P2;PMS_P1;PMS_P2;Temp;Humidity;BMP_temperature;BMP_pressure;BME280_temperature;BME280_humidity;BME280_pressure;Samples;Min_cycle;Max_cycle;Signal;HPM_P1;HPM_P2
2022/05/19 00:02:01;;;;;;;1.42;0.63;;;24.80;40.70;;;;;;5004121;28;20449;-51
2022/05/19 00:04:27;;;;;;;1.70;0.70;;;24.80;40.60;;;;;;5004940;28;20474;-50
2022/05/19 00:06:53;;;;;;;1.98;0.85;;;24.80;40.60;;;;;;5006724;28;20485;-50
2022/05/19 00:09:20;;;;;;;1.77;0.80;;;24.80;40.60;;;;;;5006672;28;20037;-51
2022/05/19 00:11:46;;;;;;;1.25;0.55;;;24.80;40.70;;;;;;5006619;28;20034;-51
2022/05/19 00:14:13;;;;;;;1.88;0.68;;;24.80;40.60;;;;;;5006926;28;20055;-50
2022/05/19 00:16:39;;;;;;;1.42;0.80;;;24.80;40.60;;;;;;5006324;28;20096;-50
2022/05/19 00:19:06;;;;;;;2.42;0.70;;;24.70;40.60;;;;;;5005241;28;20036;-50
2022/05/19 00:21:32;;;;;;;1.92;0.73;;;24.80;40.70;;;;;;5006769;28;20026;-50
2022/05/19 00:23:58;;;;;;;1.15;0.52;;;24.70;40.60;;;;;;5006490;28;20038;-51
2022/05/19 00:26:24;;;;;;;1.33;0.70;;;24.70;40.60;;;;;;5006879;28;20437;-50
2022/05/19 00:28:50;;;;;;;2.08;0.60;;;24.70;40.60;;;;;;5007090;28;20037;-50
2022/05/19 00:31:16;;;;;;;1.48;0.60;;;24.70;40.60;;;;;;5005449;28;20076;-50
2022/05/19 00:33:43;;;;;;;1.08;0.57;;;24.70;40.50;;;;;;5005774;28;20574;-50
2022/05/19 00:36:15;;;;;;;1.63;0.80;;;24.70;40.60;;;;;;5005943;28;20461;-50
2022/05/19 00:38:41;;;;;;;1.63;0.80;;;24.70;40.50;;;;;;5005309;28;20034;-51
2022/05/19 00:41:07;;;;;;;1.55;0.70;;;24.70;40.70;;;;;;5006290;28;20044;-51
2022/05/19 00:43:40;;;;;;;0.95;0.50;;;24.70;40.50;;;;;;5006157;28;20054;-51
2022/05/19 00:46:14;;;;;;;1.75;0.70;;;24.70;40.50;;;;;;5020607;28;20571;-50
2022/05/19 00:48:44;;;;;;;1.45;0.77;;;24.70;40.60;;;;;;5006270;28;20101;-50
2022/05/19 00:51:12;;;;;;;2.10;0.60;;;24.70;41.30;;;;;;5005889;28;20105;-50
2022/05/19 00:53:51;;;;;;;2.08;0.90;;;24.60;40.40;;;;;;5005920;28;20030;-50
2022/05/19 00:56:33;;;;;;;2.17;0.63;;;24.70;40.50;;;;;;5006082;28;20030;-51
2022/05/19 00:59:05;;;;;;;1.83;0.80;;;24.70;40.50;;;;;;5005283;28;20030;-50
2022/05/19 01:01:32;;;;;;;;;;;24.60;40.50;;;;;;5006013;28;20601;-50
2022/05/19 01:04:40;;;;;;;1.58;0.70;;;24.70;40.50;;;;;;5004607;28;20016;-50
2022/05/19 01:07:13;;;;;;;2.47;0.65;;;24.60;40.40;;;;;;4990659;28;20033;-50
2022/05/19 01:09:39;;;;;;;1.02;0.57;;;24.60;40.40;;;;;;5004476;28;20057;-50
2022/05/19 01:12:06;;;;;;;1.25;0.75;;;24.60;40.50;;;;;;5005309;28;20025;-51
2022/05/19 01:14:33;;;;;;;1.92;0.70;;;24.60;40.40;;;;;;5005283;28;20076;-50
2022/05/19 01:17:00;;;;;;;1.70;0.75;;;24.60;40.40;;;;;;5004089;28;20067;-50
2022/05/19 01:19:39;;;;;;;1.73;0.73;;;24.60;40.40;;;;;;5004209;28;20707;-50
2022/05/19 01:22:27;;;;;;;1.50;0.70;;;24.60;40.40;;;;;;5005310;28;20101;-51
2022/05/19 01:25:09;;;;;;;2.15;0.75;;;24.60;40.40;;;;;;5005640;28;20030;-50
2022/05/19 01:27:36;;;;;;;1.77;0.87;;;24.50;40.40;;;;;;5003059;28;20654;-50
2022/05/19 01:30:04;;;;;;;1.48;0.70;;;24.60;40.30;;;;;;5005249;28;20277;-51
2022/05/19 01:32:31;;;;;;;3.42;0.90;;;24.60;40.40;;;;;;5004630;28;20025;-51
2022/05/19 01:34:58;;;;;;;1.38;0.70;;;24.60;40.30;;;;;;5004939;28;20047;-51
2022/05/19 01:37:24;;;;;;;1.85;0.88;;;24.50;40.30;;;;;;5004967;28;20097;-50
2022/05/19 01:39:54;;;;;;;1.65;0.82;;;24.60;40.30;;;;;;5004762;28;20674;-50
2022/05/19 01:42:26;;;;;;;1.52;0.80;;;24.60;40.30;;;;;;5004149;28;20034;-50
2022/05/19 01:45:43;;;;;;;1.67;0.90;;;24.50;40.40;;;;;;5002639;28;20116;-51
2022/05/19 01:48:20;;;;;;;2.35;0.80;;;24.50;40.30;;;;;;4980257;28;20283;-50
2022/05/19 01:50:56;;;;;;;1.90;0.80;;;24.50;40.30;;;;;;5003939;28;20037;-51
2022/05/19 01:53:36;;;;;;;1.88;0.80;;;24.50;40.30;;;;;;5004167;28;20040;-50
2022/05/19 01:56:19;;;;;;;2.95;1.17;;;24.50;40.30;;;;;;5001473;28;20633;-51
2022/05/19 01:59:14;;;;;;;1.65;0.80;;;24.50;40.30;;;;;;5005023;28;20029;-50
2022/05/19 02:01:46;;;;;;;1.65;0.85;;;24.50;40.40;;;;;;5004070;28;20057;-50
2022/05/19 02:04:37;;;;;;;2.45;1.05;;;24.50;40.30;;;;;;5003842;28;20033;-50
2022/05/19 02:07:07;;;;;;;1.77;0.70;;;24.50;40.30;;;;;;4999588;28;20034;-51
2022/05/19 02:10:01;;;;;;;2.20;1.00;;;24.50;40.30;;;;;;5003679;28;20434;-50
2022/05/19 02:12:33;;;;;;;1.98;0.90;;;24.50;40.30;;;;;;5002986;28;20041;-50
2022/05/19 02:15:03;;;;;;;1.88;1.00;;;24.50;40.30;;;;;;5004460;28;20044;-51
2022/05/19 02:17:32;;;;;;;2.30;1.10;;;24.50;40.30;;;;;;5002496;28;20041;-51
2022/05/19 02:20:04;;;;;;;2.35;1.10;;;24.50;40.30;;;;;;5002134;28;20033;-50
2022/05/19 02:22:35;;;;;;;2.25;0.95;;;24.40;40.10;;;;;;5004473;28;20064;-50
2022/05/19 02:25:23;;;;;;;2.10;1.02;;;24.40;40.10;;;;;;5003248;28;20052;-50
2022/05/19 02:28:07;;;;;;;1.95;0.80;;;24.40;40.10;;;;;;4998767;28;20026;-50
2022/05/19 02:30:36;;;;;;;2.30;0.90;;;24.40;40.10;;;;;;5002923;28;20029;-50
2022/05/19 02:33:02;;;;;;;2.60;1.10;;;24.40;40.10;;;;;;5002759;28;20034;-50
2022/05/19 02:35:28;;;;;;;2.80;0.90;;;24.50;40.30;;;;;;5004123;28;20060;-50
2022/05/19 02:37:55;;;;;;;1.95;0.98;;;24.40;40.10;;;;;;5004196;28;20026;-49
2022/05/19 02:40:23;;;;;;;2.20;1.00;;;24.40;40.10;;;;;;5003291;28;20105;-50
2022/05/19 02:42:49;;;;;;;2.53;1.20;;;24.40;40.20;;;;;;5002780;28;20049;-50
2022/05/19 02:45:17;;;;;;;5.00;1.58;;;24.40;40.10;;;;;;5002982;28;20498;-51
2022/05/19 02:47:43;;;;;;;1.77;0.80;;;24.40;40.10;;;;;;5001706;28;20034;-49
2022/05/19 02:50:11;;;;;;;2.50;0.90;;;24.40;40.10;;;;;;5003546;28;20026;-50
2022/05/19 02:52:36;;;;;;;2.80;1.15;;;24.40;40.10;;;;;;5004030;28;20026;-49
2022/05/19 02:55:03;;;;;;;2.90;0.93;;;24.40;40.10;;;;;;5003784;28;20677;-48
2022/05/19 02:57:29;;;;;;;2.20;1.10;;;24.40;40.10;;;;;;5003989;28;20057;-49
2022/05/19 02:59:54;;;;;;;2.88;1.30;;;24.40;40.10;;;;;;5003315;28;20113;-50
2022/05/19 03:02:20;;;;;;;2.85;1.05;;;24.40;40.10;;;;;;5003361;28;20084;-50
2022/05/19 03:04:46;;;;;;;3.63;1.40;;;24.40;40.00;;;;;;5004116;28;20018;-51
2022/05/19 03:07:11;;;;;;;3.38;1.08;;;24.40;40.00;;;;;;5003394;28;20026;-50
2022/05/19 03:09:40;;;;;;;2.22;1.20;;;24.40;39.90;;;;;;5004063;28;20022;-49
2022/05/19 03:12:08;;;;;;;3.42;1.00;;;24.40;40.00;;;;;;5002483;28;20028;-51
2022/05/19 03:14:34;;;;;;;3.85;1.13;;;24.40;39.90;;;;;;5002303;28;20082;-49
2022/05/19 03:16:59;;;;;;;2.75;1.30;;;24.40;40.00;;;;;;5003132;28;20835;-51
2022/05/19 03:19:25;;;;;;;2.42;1.20;;;24.40;40.00;;;;;;5003739;28;20044;-49
2022/05/19 03:21:51;;;;;;;1.98;0.88;;;24.40;40.00;;;;;;5001909;28;20033;-49
2022/05/19 03:24:17;;;;;;;2.72;1.20;;;24.40;40.00;;;;;;5003223;28;20065;-50
2022/05/19 03:26:42;;;;;;;2.00;1.15;;;24.30;40.00;;;;;;5003840;28;20026;-50
2022/05/19 03:29:09;;;;;;;2.22;0.90;;;24.40;40.00;;;;;;5003924;28;20034;-50
2022/05/19 03:31:35;;;;;;;2.10;1.00;;;24.40;40.00;;;;;;5003138;28;20045;-50
2022/05/19 03:34:02;;;;;;;3.67;1.10;;;24.40;40.10;;;;;;5003852;28;20052;-50
2022/05/19 03:36:29;;;;;;;2.22;0.90;;;24.30;40.00;;;;;;5002815;28;20034;-49
2022/05/19 03:38:55;;;;;;;2.00;0.93;;;24.30;40.00;;;;;;5003828;28;20117;-50
2022/05/19 03:41:22;;;;;;;2.22;1.00;;;24.30;40.00;;;;;;5003469;28;20541;-49
2022/05/19 03:43:48;;;;;;;2.65;1.20;;;24.30;40.00;;;;;;5003891;28;20028;-50
2022/05/19 03:46:13;;;;;;;1.77;0.88;;;24.30;39.90;;;;;;5001185;28;20030;-50
2022/05/19 03:48:40;;;;;;;2.80;1.20;;;24.30;39.90;;;;;;5003181;28;20485;-51
2022/05/19 03:51:10;;;;;;;1.90;1.00;;;24.30;39.90;;;;;;5003526;28;20136;-51
2022/05/19 03:53:36;;;;;;;3.50;1.10;;;24.30;39.80;;;;;;5006907;28;20018;-51
2022/05/19 03:56:02;;;;;;;1.92;0.93;;;24.30;39.80;;;;;;5006634;28;20022;-51
2022/05/19 03:58:27;;;;;;;2.63;1.30;;;24.30;39.90;;;;;;5006816;28;20121;-50
2022/05/19 04:00:53;;;;;;;1.70;0.95;;;24.30;39.90;;;;;;5005581;28;20120;-50
2022/05/19 04:03:19;;;;;;;2.22;1.10;;;24.30;39.90;;;;;;5006578;28;20058;-51
2022/05/19 04:05:45;;;;;;;2.00;1.00;;;24.30;39.80;;;;;;5006099;28;20018;-50
2022/05/19 04:08:11;;;;;;;3.30;1.40;;;24.30;39.90;;;;;;5006357;28;20033;-51
2022/05/19 04:10:42;;;;;;;2.00;1.08;;;24.30;39.90;;;;;;5006256;28;20153;-50
2022/05/19 04:13:09;;;;;;;3.78;1.52;;;24.30;39.90;;;;;;5005327;28;20084;-50
2022/05/19 04:15:35;;;;;;;2.78;1.10;;;24.30;40.00;;;;;;5006425;28;20057;-51
2022/05/19 04:18:00;;;;;;;2.42;0.98;;;24.30;39.90;;;;;;5005987;28;20057;-51
2022/05/19 04:20:30;;;;;;;2.60;1.17;;;24.30;39.90;;;;;;5006335;28;20030;-50
2022/05/19 04:22:57;;;;;;;2.53;1.30;;;24.30;39.90;;;;;;5004888;28;20029;-51
2022/05/19 04:25:23;;;;;;;1.40;0.82;;;24.30;39.90;;;;;;5005816;28;20029;-50
2022/05/19 04:27:48;;;;;;;3.17;1.13;;;24.30;39.90;;;;;;5004714;28;20028;-50
2022/05/19 04:30:15;;;;;;;2.40;1.20;;;24.30;39.90;;;;;;5005886;28;20057;-50
2022/05/19 04:32:42;;;;;;;2.08;1.00;;;24.30;39.90;;;;;;5006119;28;20061;-51
2022/05/19 04:35:09;;;;;;;2.30;1.20;;;24.20;39.80;;;;;;5004538;28;20096;-50
2022/05/19 04:37:35;;;;;;;2.25;1.00;;;24.30;39.90;;;;;;5003891;28;20044;-50
2022/05/19 04:40:02;;;;;;;2.90;1.20;;;24.30;39.90;;;;;;5005418;28;20018;-50
2022/05/19 04:42:28;;;;;;;2.72;1.25;;;24.30;39.90;;;;;;5004768;28;20068;-50
2022/05/19 04:44:55;;;;;;;2.05;1.00;;;24.30;39.90;;;;;;5004179;28;20029;-51
2022/05/19 04:47:20;;;;;;;1.95;1.02;;;24.20;39.70;;;;;;5004451;28;20645;-52
2022/05/19 04:49:46;;;;;;;2.50;1.25;;;24.20;39.70;;;;;;5005540;28;20030;-51
2022/05/19 04:52:12;;;;;;;2.28;0.95;;;24.30;39.80;;;;;;5005020;28;20137;-52
2022/05/19 04:54:38;;;;;;;2.05;0.95;;;24.20;39.80;;;;;;5005568;28;20033;-52
2022/05/19 04:57:04;;;;;;;8.75;2.10;;;24.30;39.90;;;;;;5004755;28;20489;-52
2022/05/19 04:59:31;;;;;;;16.17;5.22;;;24.30;42.70;;;;;;5004802;28;20061;-51
2022/05/19 05:01:57;;;;;;;12.00;3.53;;;24.30;46.80;;;;;;5001853;28;20099;-51
2022/05/19 05:04:26;;;;;;;9.82;3.53;;;24.30;47.10;;;;;;5005395;28;20026;-51
2022/05/19 05:06:53;;;;;;;10.98;3.70;;;24.40;46.40;;;;;;5004787;28;20020;-51
2022/05/19 05:09:19;;;;;;;8.95;3.30;;;24.40;46.90;;;;;;5004929;28;20068;-50
2022/05/19 05:11:44;;;;;;;10.43;2.88;;;24.40;46.80;;;;;;5004461;28;20025;-50
2022/05/19 05:14:10;;;;;;;10.25;2.70;;;24.40;46.10;;;;;;5004835;28;20030;-52
2022/05/19 05:16:37;;;;;;;8.15;2.80;;;24.40;46.50;;;;;;5003114;28;20026;-51
2022/05/19 05:19:04;;;;;;;8.25;2.40;;;24.40;46.80;;;;;;5001902;28;20597;-50
2022/05/19 05:21:30;;;;;;;5.45;2.13;;;24.40;46.60;;;;;;5004634;28;20075;-51
2022/05/19 05:23:56;;;;;;;6.50;2.33;;;24.40;45.90;;;;;;5003566;28;20105;-51
2022/05/19 05:26:22;;;;;;;4.85;1.85;;;24.50;45.60;;;;;;5004687;28;20097;-51
2022/05/19 05:28:48;;;;;;;5.30;1.70;;;24.50;45.70;;;;;;5004986;28;20709;-51
2022/05/19 05:31:14;;;;;;;6.43;1.70;;;24.50;45.40;;;;;;5003805;28;20083;-51
2022/05/19 05:33:39;;;;;;;5.07;1.73;;;24.50;45.40;;;;;;5003002;28;20121;-47
2022/05/19 05:36:05;;;;;;;4.78;1.65;;;24.50;45.30;;;;;;5004262;28;20026;-51
2022/05/19 05:38:31;;;;;;;7.78;1.52;;;24.50;45.30;;;;;;5004130;28;20030;-51
2022/05/19 05:40:59;;;;;;;4.32;1.63;;;24.50;45.40;;;;;;5004090;28;20032;-50
2022/05/19 05:43:24;;;;;;;4.85;1.70;;;24.50;45.30;;;;;;5004675;28;20029;-52
2022/05/19 05:45:51;;;;;;;7.13;1.95;;;24.50;45.60;;;;;;5004593;28;20052;-52
2022/05/19 05:48:18;;;;;;;5.97;1.67;;;24.50;46.00;;;;;;5004571;28;20030;-50
2022/05/19 05:50:44;;;;;;;4.10;1.70;;;24.50;45.60;;;;;;5004500;28;20030;-50
2022/05/19 05:53:10;;;;;;;8.60;2.20;;;24.50;45.70;;;;;;5004592;28;20022;-51
2022/05/19 05:55:39;;;;;;;4.15;1.88;;;24.50;45.60;;;;;;5005271;28;20191;-50
2022/05/19 05:58:09;;;;;;;9.48;2.30;;;24.60;45.50;;;;;;5004474;28;20036;-50
2022/05/19 06:00:38;;;;;;;3.47;1.42;;;24.60;45.30;;;;;;5004212;28;20469;-51
2022/05/19 06:03:04;;;;;;;4.45;1.50;;;24.60;45.20;;;;;;5004683;28;20030;-51
2022/05/19 06:05:29;;;;;;;4.50;1.67;;;24.60;45.40;;;;;;5005520;28;20022;-50
2022/05/19 06:07:55;;;;;;;4.30;1.65;;;24.60;45.30;;;;;;5003805;28;20540;-50
2022/05/19 06:10:21;;;;;;;4.18;1.45;;;24.60;44.80;;;;;;5003048;28;20108;-52
2022/05/19 06:12:46;;;;;;;3.60;1.50;;;24.60;44.60;;;;;;5004076;28;20029;-51
2022/05/19 06:15:14;;;;;;;3.90;1.42;;;24.70;44.70;;;;;;5004045;28;20799;-51
2022/05/19 06:17:40;;;;;;;5.45;1.65;;;24.70;44.70;;;;;;5002872;28;20028;-52
2022/05/19 06:20:10;;;;;;;3.22;1.15;;;24.70;44.60;;;;;;5002639;28;20097;-52
2022/05/19 06:22:36;;;;;;;3.47;1.20;;;24.70;44.40;;;;;;5002421;28;20108;-52
2022/05/19 06:25:02;;;;;;;4.07;1.48;;;24.70;44.20;;;;;;5004155;28;20030;-52
2022/05/19 06:27:28;;;;;;;3.60;1.60;;;24.70;44.20;;;;;;5003692;28;20087;-52
2022/05/19 06:29:54;;;;;;;5.05;1.42;;;24.70;44.10;;;;;;5003904;28;20026;-53
2022/05/19 06:32:19;;;;;;;5.72;1.65;;;24.70;44.40;;;;;;5004176;28;20058;-52
2022/05/19 06:34:45;;;;;;;3.10;1.30;;;24.70;44.30;;;;;;5004151;28;20061;-53
2022/05/19 06:37:11;;;;;;;3.88;1.45;;;24.70;44.20;;;;;;5003545;28;20026;-53
2022/05/19 06:39:36;;;;;;;3.70;1.63;;;24.70;44.00;;;;;;5005155;28;20034;-52
2022/05/19 06:42:02;;;;;;;3.38;1.33;;;24.80;43.80;;;;;;5004990;28;20026;-53
2022/05/19 06:44:33;;;;;;;3.20;1.40;;;24.70;43.70;;;;;;5005116;28;20026;-52
2022/05/19 06:46:59;;;;;;;1.80;1.10;;;24.70;43.70;;;;;;5004358;28;20175;-53
2022/05/19 06:49:25;;;;;;;3.55;1.60;;;24.70;43.60;;;;;;5004788;28;20026;-52
2022/05/19 06:51:51;;;;;;;3.53;1.35;;;24.70;43.50;;;;;;5005052;28;20026;-52
2022/05/19 06:54:17;;;;;;;2.67;1.20;;;24.70;43.50;;;;;;5004924;28;20040;-52
2022/05/19 06:56:43;;;;;;;5.30;1.63;;;24.70;43.40;;;;;;5004632;28;20036;-52
2022/05/19 06:59:09;;;;;;;3.60;1.13;;;24.70;43.30;;;;;;5019041;28;20042;-52
2022/05/19 07:01:35;;;;;;;2.53;1.00;;;24.70;43.40;;;;;;5004801;28;20097;-52
2022/05/19 07:04:01;;;;;;;3.20;1.73;;;24.70;43.30;;;;;;5005011;28;20115;-52
2022/05/19 07:06:27;;;;;;;3.95;1.58;;;24.70;43.30;;;;;;5003197;28;20037;-52
2022/05/19 07:08:52;;;;;;;3.78;1.17;;;24.70;43.30;;;;;;5004876;28;20119;-52
2022/05/19 07:11:27;;;;;;;3.28;1.25;;;24.70;43.30;;;;;;5004570;28;20476;-53
2022/05/19 07:14:05;;;;;;;3.70;1.25;;;24.70;43.30;;;;;;5004574;28;20154;-51
2022/05/19 07:16:31;;;;;;;3.40;1.35;;;24.70;43.30;;;;;;5004572;28;20045;-52
2022/05/19 07:21:42;;;;;;;3.50;1.20;;;24.70;43.30;;;;;;5004606;28;20026;-52
2022/05/19 07:24:20;;;;;;;3.35;1.60;;;24.70;43.30;;;;;;5004444;28;20018;-52
2022/05/19 07:26:49;;;;;;;2.70;1.08;;;24.70;43.40;;;;;;5006867;28;20053;-52
2022/05/19 07:29:15;;;;;;;2.47;0.93;;;24.70;43.30;;;;;;5008299;28;20026;-52
2022/05/19 07:31:42;;;;;;;2.85;1.25;;;24.70;43.30;;;;;;5008683;28;20026;-52
2022/05/19 07:34:10;;;;;;;1.65;0.80;;;24.70;43.30;;;;;;5008271;28;20030;-52
2022/05/19 07:36:37;;;;;;;2.58;1.10;;;24.70;43.30;;;;;;5006515;28;20069;-52
2022/05/19 07:39:03;;;;;;;2.10;0.90;;;24.70;43.30;;;;;;4988433;28;20495;-53
2022/05/19 07:41:31;;;;;;;2.92;1.25;;;24.70;43.30;;;;;;4994289;28;20116;-53
2022/05/19 07:43:57;;;;;;;1.95;0.90;;;24.80;43.30;;;;;;5008338;28;20061;-52
2022/05/19 07:46:25;;;;;;;2.95;1.17;;;24.70;43.30;;;;;;5008036;28;20083;-53
2022/05/19 07:48:54;;;;;;;2.67;1.30;;;24.70;43.30;;;;;;5007339;28;20226;-53
2022/05/19 07:51:25;;;;;;;2.42;1.02;;;24.70;43.30;;;;;;5007541;28;20066;-53
2022/05/19 07:53:51;;;;;;;3.58;1.27;;;24.70;43.20;;;;;;5008211;28;20381;-53
2022/05/19 07:56:17;;;;;;;3.15;1.10;;;24.70;43.20;;;;;;5007857;28;20103;-52
2022/05/19 07:58:44;;;;;;;2.40;1.00;;;24.70;43.20;;;;;;5007792;28;20064;-53
2022/05/19 08:01:10;;;;;;;2.92;1.13;;;24.70;43.20;;;;;;5007685;28;20120;-52
2022/05/19 08:03:36;;;;;;;2.55;1.00;;;24.70;43.20;;;;;;5006830;28;20506;-53
2022/05/19 08:06:04;;;;;;;3.88;1.10;;;24.70;43.20;;;;;;5007620;28;20038;-53
2022/05/19 08:08:29;;;;;;;3.03;1.10;;;24.70;43.20;;;;;;5006270;28;20072;-53
2022/05/19 08:10:57;;;;;;;2.35;1.17;;;24.70;43.20;;;;;;5007530;28;20528;-51
2022/05/19 08:16:07;;;;;;;1.98;0.85;;;24.70;43.20;;;;;;5005760;28;20108;-53
2022/05/19 08:18:33;;;;;;;2.33;1.15;;;24.70;43.20;;;;;;5007508;28;20037;-53
2022/05/19 08:21:03;;;;;;;3.33;1.25;;;24.70;43.20;;;;;;5006457;28;20026;-52
2022/05/19 08:23:32;;;;;;;2.42;1.00;;;24.70;43.20;;;;;;5007633;28;20025;-53
2022/05/19 08:25:59;;;;;;;1.98;0.80;;;24.70;43.20;;;;;;5007183;28;20081;-53
2022/05/19 08:28:29;;;;;;;2.58;1.13;;;24.70;43.20;;;;;;5006446;28;20022;-52
2022/05/19 08:31:06;;;;;;;2.35;1.00;;;24.70;43.20;;;;;;5007352;28;20026;-51
2022/05/19 08:33:33;;;;;;;2.08;1.00;;;24.70;43.20;;;;;;5007014;28;20084;-52
2022/05/19 08:35:59;;;;;;;1.92;0.80;;;24.70;43.90;;;;;;5006706;28;20026;-52
2022/05/19 08:38:26;;;;;;;2.05;1.05;;;24.70;43.20;;;;;;4996732;28;20031;-53
2022/05/19 08:41:17;;;;;;;2.60;1.17;;;24.70;43.20;;;;;;4987269;28;20030;-52
2022/05/19 08:44:03;;;;;;;2.30;1.08;;;24.70;43.20;;;;;;4987587;28;20540;-52
2022/05/19 08:46:42;;;;;;;2.63;1.10;;;24.70;43.20;;;;;;4987356;28;20037;-53
2022/05/19 08:49:47;;;;;;;2.28;0.95;;;24.70;43.20;;;;;;5003016;28;20136;-53
2022/05/19 08:52:19;;;;;;;2.40;1.13;;;24.70;43.20;;;;;;5005816;28;20038;-53
2022/05/19 08:54:46;;;;;;;;;;;24.70;43.20;;;;;;5007542;28;20053;-53
2022/05/19 08:57:31;;;;;;;2.08;0.90;;;24.70;43.10;;;;;;5006408;28;19905;-52
2022/05/19 09:00:17;;;;;;;2.95;1.05;;;24.70;43.20;;;;;;5005480;28;20036;-52
2022/05/19 09:02:50;;;;;;;1.70;0.88;;;24.70;43.20;;;;;;5006376;28;20025;-52
2022/05/19 09:05:34;;;;;;;;;;;24.70;43.20;;;;;;5007253;28;20445;-53
2022/05/19 09:08:15;;;;;;;2.58;1.15;;;24.70;43.10;;;;;;5006451;28;20564;-53
2022/05/19 09:11:06;;;;;;;1.67;0.70;;;24.70;43.20;;;;;;5006081;28;20109;-52
2022/05/19 09:13:42;;;;;;;1.63;0.80;;;24.70;43.20;;;;;;5005776;28;20025;-52
2022/05/19 09:16:15;;;;;;;1.92;0.80;;;24.70;43.20;;;;;;5005441;28;20100;-51
2022/05/19 09:18:51;;;;;;;2.95;0.88;;;24.70;43.20;;;;;;5005680;28;20044;-53
2022/05/19 09:21:16;;;;;;;2.17;0.80;;;24.70;43.20;;;;;;5005911;28;20025;-52
2022/05/19 09:23:42;;;;;;;2.88;0.95;;;24.70;43.20;;;;;;5006151;28;20033;-53
2022/05/19 09:26:48;;;;;;;2.42;0.93;;;24.70;43.20;;;;;;5005311;28;20093;-52
2022/05/19 09:29:17;;;;;;;1.70;0.80;;;24.70;43.20;;;;;;5004552;28;20042;-53
2022/05/19 09:31:47;;;;;;;2.90;1.27;;;24.70;43.10;;;;;;5006093;28;20131;-53
2022/05/19 09:34:13;;;;;;;2.70;0.93;;;24.70;43.20;;;;;;5005755;28;20073;-52
2022/05/19 09:36:53;;;;;;;2.17;0.90;;;24.70;43.10;;;;;;5004984;28;20033;-52
2022/05/19 09:39:19;;;;;;;1.67;0.80;;;24.70;43.10;;;;;;4996454;28;20038;-52
2022/05/19 09:41:51;;;;;;;1.73;0.90;;;24.70;43.10;;;;;;4985624;28;20158;-52
2022/05/19 09:44:27;;;;;;;2.47;0.90;;;24.70;43.10;;;;;;4986361;28;20036;-53
2022/05/19 09:46:53;;;;;;;2.35;1.00;;;24.70;43.10;;;;;;4986076;28;20116;-53
2022/05/19 09:49:38;;;;;;;1.88;0.82;;;24.70;43.10;;;;;;5002166;28;20037;-52
2022/05/19 09:52:06;;;;;;;2.40;1.08;;;24.70;43.10;;;;;;5005741;28;20323;-52
2022/05/19 09:54:34;;;;;;;2.05;0.88;;;24.70;43.10;;;;;;5006063;28;20616;-52
2022/05/19 09:57:14;;;;;;;1.85;0.90;;;24.70;43.10;;;;;;5005273;28;20041;-52
2022/05/19 09:59:48;;;;;;;1.77;0.80;;;24.70;43.10;;;;;;5004787;28;20334;-52
2022/05/19 10:02:26;;;;;;;2.42;1.17;;;24.70;43.10;;;;;;5004852;28;20029;-53
2022/05/19 10:04:58;;;;;;;2.10;1.00;;;24.70;43.10;;;;;;5005532;28;20810;-53
2022/05/19 10:07:36;;;;;;;2.45;0.95;;;24.70;43.00;;;;;;5005419;28;20439;-52
2022/05/19 10:10:15;;;;;;;1.85;0.90;;;24.70;43.00;;;;;;5004776;28;20075;-52
2022/05/19 10:12:48;;;;;;;1.70;0.75;;;24.70;43.00;;;;;;5005097;28;20080;-51
2022/05/19 10:15:18;;;;;;;2.42;0.80;;;24.70;43.00;;;;;;5005429;28;20037;-52
2022/05/19 10:17:50;;;;;;;1.77;0.90;;;24.70;43.00;;;;;;5005035;28;20030;-53
2022/05/19 10:20:27;;;;;;;2.30;0.82;;;24.70;43.10;;;;;;5005531;28;20025;-53
2022/05/19 10:23:22;;;;;;;2.72;0.90;;;24.80;43.00;;;;;;5005742;28;20030;-51
2022/05/19 10:26:19;;;;;;;1.65;0.80;;;24.80;43.00;;;;;;5005119;28;20034;-52
2022/05/19 10:32:24;;;;;;;1.70;0.80;;;24.80;43.70;;;;;;5004776;28;20551;-53
2022/05/19 10:35:05;;;;;;;2.03;1.00;;;24.80;43.00;;;;;;5005146;28;20486;-53
2022/05/19 10:37:55;;;;;;;2.15;0.90;;;24.80;43.10;;;;;;5003510;28;20041;-53
2022/05/19 10:40:33;;;;;;;1.70;0.82;;;24.80;43.00;;;;;;4993867;28;20057;-53
2022/05/19 10:43:24;;;;;;;1.77;0.90;;;24.80;43.00;;;;;;4985350;28;20026;-52
2022/05/19 10:45:53;;;;;;;1.55;0.80;;;24.80;43.00;;;;;;4985748;28;20577;-52
2022/05/19 10:48:49;;;;;;;1.85;0.80;;;24.80;43.00;;;;;;4992338;28;20034;-52
2022/05/19 10:51:17;;;;;;;1.33;0.70;;;24.80;43.00;;;;;;5005379;28;20034;-52
2022/05/19 10:54:03;;;;;;;2.10;0.70;;;24.80;43.10;;;;;;5005158;28;20022;-52
2022/05/19 10:56:43;;;;;;;1.95;0.82;;;24.80;43.00;;;;;;5004684;28;20072;-53
2022/05/19 10:59:34;;;;;;;1.27;0.60;;;24.80;43.10;;;;;;5004482;28;20030;-52
2022/05/19 11:02:13;;;;;;;2.38;0.60;;;24.80;43.10;;;;;;5007533;28;20054;-52
2022/05/19 11:04:54;;;;;;;2.08;0.80;;;24.80;43.00;;;;;;5009033;28;20038;-51
2022/05/19 11:07:38;;;;;;;1.55;0.70;;;24.80;43.00;;;;;;5008768;28;20034;-52
2022/05/19 11:10:22;;;;;;;1.40;0.80;;;24.80;43.10;;;;;;5008907;28;20025;-52
2022/05/19 11:13:25;;;;;;;1.30;0.60;;;24.80;43.00;;;;;;5008962;28;20045;-53
2022/05/19 11:16:11;;;;;;;2.10;0.70;;;24.80;43.00;;;;;;5008355;28;20034;-53
2022/05/19 11:19:09;;;;;;;1.25;0.70;;;24.80;43.00;;;;;;5007454;28;20042;-53
2022/05/19 11:21:38;;;;;;;1.70;0.70;;;24.80;43.10;;;;;;5008200;28;20053;-53
2022/05/19 11:24:22;;;;;;;1.83;0.90;;;24.80;43.00;;;;;;5008782;28;20064;-52
2022/05/19 11:26:52;;;;;;;2.05;0.90;;;24.80;43.70;;;;;;5008397;28;20437;-53
2022/05/19 11:29:49;;;;;;;2.00;1.00;;;24.80;43.00;;;;;;5008347;28;20427;-53
2022/05/19 11:32:35;;;;;;;1.10;0.60;;;24.80;43.00;;;;;;5008341;28;20034;-53
2022/05/19 11:35:23;;;;;;;2.20;0.80;;;24.80;43.00;;;;;;4989061;28;20035;-52
2022/05/19 11:38:07;;;;;;;1.30;0.73;;;24.90;43.00;;;;;;4988291;28;20042;-52
2022/05/19 11:40:58;;;;;;;2.17;0.90;;;24.90;43.10;;;;;;4988621;28;20030;-53
2022/05/19 11:43:31;;;;;;;1.75;1.00;;;24.90;43.00;;;;;;4988750;28;20018;-52
2022/05/19 11:46:06;;;;;;;2.00;0.70;;;24.90;43.10;;;;;;4988749;28;20580;-52
2022/05/19 11:55:13;;;;;;;1.52;0.70;;;24.90;43.20;;;;;;5008003;28;20033;-51
2022/05/19 11:57:48;;;;;;;2.30;1.00;;;25.00;43.10;;;;;;5006567;28;20674;-52
2022/05/19 12:00:27;;;;;;;2.67;0.98;;;25.00;43.20;;;;;;5007166;28;20046;-53
2022/05/19 12:03:35;;;;;;;2.70;0.80;;;25.00;43.10;;;;;;5005561;28;20065;-53
2022/05/19 12:06:16;;;;;;;2.60;0.80;;;25.00;43.10;;;;;;4986300;28;20034;-52
2022/05/19 12:08:56;;;;;;;2.00;1.10;;;25.00;43.20;;;;;;5006636;28;20029;-51
2022/05/19 12:11:47;;;;;;;1.55;0.60;;;25.00;43.20;;;;;;5007723;28;20109;-52
2022/05/19 12:14:19;;;;;;;1.48;0.80;;;25.00;43.20;;;;;;5008069;28;20060;-52
2022/05/19 12:16:59;;;;;;;1.50;0.77;;;25.10;43.20;;;;;;5006674;28;20049;-53
2022/05/19 12:19:41;;;;;;;1.63;0.93;;;25.10;43.20;;;;;;5006390;28;20460;-52
2022/05/19 12:22:11;;;;;;;1.77;0.73;;;25.10;43.90;;;;;;5007327;28;20109;-52
2022/05/19 12:24:40;;;;;;;2.10;1.08;;;25.10;43.20;;;;;;5007095;28;20034;-52
2022/05/19 12:27:23;;;;;;;1.92;0.90;;;25.20;43.20;;;;;;5007059;28;20022;-53
2022/05/19 12:33:26;;;;;;;2.30;0.90;;;25.20;43.20;;;;;;5007044;28;20666;-52
2022/05/19 12:35:59;;;;;;;1.65;0.80;;;25.20;43.10;;;;;;5006427;28;20083;-52
2022/05/19 12:38:51;;;;;;;2.22;0.80;;;25.20;43.10;;;;;;5006818;28;20072;-52
2022/05/19 12:41:23;;;;;;;1.55;0.60;;;25.30;43.00;;;;;;5004398;28;20117;-52
2022/05/19 12:43:51;;;;;;;1.90;0.70;;;25.30;43.00;;;;;;5006757;28;20541;-52
2022/05/19 12:46:46;;;;;;;1.70;0.70;;;25.30;43.00;;;;;;5006730;28;20034;-53
2022/05/19 12:49:21;;;;;;;1.48;0.73;;;25.30;43.00;;;;;;4993988;28;20686;-52
2022/05/19 12:51:54;;;;;;;1.85;0.70;;;25.40;43.00;;;;;;5006596;28;20030;-53
2022/05/19 12:54:22;;;;;;;2.05;0.93;;;25.40;42.90;;;;;;5006700;28;20046;-52
2022/05/19 12:56:55;;;;;;;1.73;0.73;;;25.40;42.80;;;;;;5006404;28;20207;-52
2022/05/19 12:59:42;;;;;;;2.10;0.70;;;25.40;42.80;;;;;;5006478;28;20033;-53
2022/05/19 13:02:35;;;;;;;1.52;0.75;;;25.40;42.80;;;;;;5006054;28;20030;-53
2022/05/19 13:05:05;;;;;;;1.73;0.75;;;25.50;42.80;;;;;;4999801;28;20738;-53
2022/05/19 13:07:42;;;;;;;1.65;0.77;;;25.50;42.80;;;;;;5006005;28;20038;-53
2022/05/19 13:10:21;;;;;;;2.20;0.90;;;25.50;42.70;;;;;;5006923;28;20038;-52
2022/05/19 13:13:08;;;;;;;1.85;0.90;;;25.50;42.70;;;;;;5006794;28;20034;-53
2022/05/19 13:15:48;;;;;;;2.38;1.02;;;25.50;42.80;;;;;;5005937;28;20030;-52
2022/05/19 13:18:16;;;;;;;2.28;0.80;;;25.50;42.70;;;;;;5005509;28;20041;-52
2022/05/19 13:20:42;;;;;;;2.28;0.85;;;25.50;42.70;;;;;;4992235;28;20039;-51
2022/05/19 13:23:29;;;;;;;2.45;0.60;;;25.60;42.70;;;;;;4985447;28;20725;-53
2022/05/19 13:26:19;;;;;;;2.28;1.08;;;25.60;42.70;;;;;;4986398;28;20487;-53
2022/05/19 13:31:53;;;;;;;1.67;0.98;;;25.60;42.60;;;;;;4986468;28;20529;-53
2022/05/19 13:34:20;;;;;;;2.30;0.90;;;25.60;42.60;;;;;;4998587;28;20038;-53
2022/05/19 13:36:59;;;;;;;2.25;0.90;;;25.60;42.50;;;;;;5005477;28;20038;-51